Akebono — JG5644 — position and weather

sailwx.info

Track history (hours):
 
Tides and Currents Weather Stations Pressure Air Temp Water Temp Dewpoint Dewpoint Depression Visibility Wind Speed Wind Dir Waves Ship Positions

Akebono

Last reported at 2014-Sep-30 22:17 UTC. Time now 2014-Oct-01 22:33 UTC.
Position N 35°27' E 139°39'.

Length 33 m; draft 4.4 m.

Type: Tug. MMSI: 431000233.

Date/timePositionNaut miles runAvg speedWind from/ knotsBaromVisibWave heightAir tempDewpointWater temp
2014-Sep-30 22:17N 35°27' E 139°39'1 1.6
2014-Sep-30 21:33N 35°28' E 139°40'1 1.0
2014-Sep-30 20:33N 35°28' E 139°42'0 0.4
2014-Sep-30 19:34N 35°28' E 139°42'0 0.0
2014-Sep-30 18:34N 35°28' E 139°42'2 1.5
2014-Sep-30 17:34N 35°26' E 139°41'2 1.8
2014-Sep-30 16:34N 35°26' E 139°43'1 1.2
2014-Sep-30 15:34N 35°26' E 139°42'0 0.0
2014-Sep-30 14:33N 35°26' E 139°42'0 0.0
2014-Sep-30 13:33N 35°26' E 139°42'0 0.0
2014-Sep-30 12:33N 35°26' E 139°42'2 2.5
2014-Sep-30 11:33N 35°24' E 139°41'3 2.6
2014-Sep-30 10:33N 35°26' E 139°42'0 0.0
2014-Sep-30 09:33N 35°26' E 139°42'1 1.3
2014-Sep-30 08:33N 35°27' E 139°41'1 1.3
2014-Sep-30 07:33N 35°27' E 139°39'0 0.0
2014-Sep-30 06:33N 35°27' E 139°39'0 0.1
2014-Sep-30 05:33N 35°27' E 139°39'0 0.0
2014-Sep-30 04:33N 35°27' E 139°39'0 0.0
2014-Sep-30 03:33N 35°27' E 139°39'0 0.0
2014-Sep-30 02:33N 35°27' E 139°39'0 0.0
2014-Sep-30 01:33N 35°27' E 139°39'0 0.0
2014-Sep-30 00:33N 35°27' E 139°39'0 0.0
2014-Sep-29 23:33N 35°27' E 139°39'0 0.0
2014-Sep-29 22:33N 35°27' E 139°39'0 0.0
2014-Sep-29 21:33N 35°27' E 139°39'0 0.0
2014-Sep-29 20:33N 35°27' E 139°39'  
2014-Sep-27 09:16N 35°27' E 139°39'0 0.0
2014-Sep-27 08:33N 35°27' E 139°39'0 0.3
2014-Sep-27 07:33N 35°27' E 139°40'1 1.1
2014-Sep-27 06:33N 35°27' E 139°41'1 0.7
2014-Sep-27 05:34N 35°28' E 139°41'0 0.0
2014-Sep-27 04:33N 35°28' E 139°41'0 0.0
2014-Sep-27 03:33N 35°28' E 139°41'0 0.0
2014-Sep-27 02:33N 35°28' E 139°41'2 2.2
2014-Sep-27 01:33N 35°25' E 139°41'2 1.9
2014-Sep-27 00:33N 35°27' E 139°39'0 0.2
2014-Sep-26 23:33N 35°27' E 139°40'6 5.9
2014-Sep-26 22:33N 35°30' E 139°46'4 4.5
2014-Sep-26 21:34N 35°27' E 139°42'2 0.1
2014-Sep-25 22:33N 35°28' E 139°41'3 3.3
2014-Sep-25 21:34N 35°30' E 139°44'2 2.2
2014-Sep-25 20:34N 35°28' E 139°44'0 0.0
2014-Sep-25 19:34N 35°28' E 139°44'1 0.6
2014-Sep-25 18:33N 35°28' E 139°43'2 1.9
2014-Sep-25 17:33N 35°27' E 139°41'0 0.4
2014-Sep-25 16:33N 35°28' E 139°41'3 3.3
2014-Sep-25 15:33N 35°24' E 139°41'1 0.8
2014-Sep-25 14:33N 35°24' E 139°41'4 3.7
2014-Sep-25 13:33N 35°27' E 139°39'0 0.0
2014-Sep-25 12:33N 35°27' E 139°39'0 0.0
2014-Sep-25 11:34N 35°27' E 139°39'3 2.7
2014-Sep-25 10:33N 35°27' E 139°43'2 2.0
2014-Sep-25 09:34N 35°28' E 139°40'0 0.0
2014-Sep-25 08:34N 35°28' E 139°40'0 0.0
2014-Sep-25 07:33N 35°28' E 139°40'1 1.0
2014-Sep-25 06:33N 35°27' E 139°39'0 0.0
2014-Sep-25 05:33N 35°27' E 139°39'0 0.0
2014-Sep-25 04:33N 35°27' E 139°39'0 0.0
2014-Sep-25 03:33N 35°27' E 139°39'0 0.0
2014-Sep-25 02:34N 35°27' E 139°39'0 0.0
2014-Sep-25 01:34N 35°27' E 139°39'0 0.0
2014-Sep-25 00:34N 35°27' E 139°39'0 0.0
2014-Sep-24 23:34N 35°27' E 139°39'1 1.2
2014-Sep-24 22:33N 35°27' E 139°41'2 2.1
2014-Sep-24 21:34N 35°26' E 139°43'3 2.9
2014-Sep-24 20:33N 35°27' E 139°39'0 0.0
2014-Sep-24 10:16N 35°27' E 139°39'0 0.0
2014-Sep-22 10:34N 35°27' E 139°40'1 0.5
2014-Sep-22 09:34N 35°27' E 139°40'3 2.6
2014-Sep-22 08:33N 35°25' E 139°43'3 3.4
2014-Sep-22 07:34N 35°27' E 139°39'0 0.0
2014-Sep-22 06:33N 35°27' E 139°39'0 0.1
2014-Sep-22 05:34N 35°27' E 139°39'0 0.0
2014-Sep-22 04:34N 35°27' E 139°39'0 0.0
2014-Sep-22 03:34N 35°27' E 139°39'4 4.1
2014-Sep-22 02:34N 35°30' E 139°43'3 2.6
2014-Sep-22 01:33N 35°31' E 139°46'1 0.5
2014-Sep-22 00:31N 35°30' E 139°46'1 1.3
2014-Sep-21 23:33N 35°30' E 139°45'5 5.4
2014-Sep-21 22:33N 35°27' E 139°39'1 0.1
2014-Sep-20 22:33N 35°28' E 139°41'  
Track history (hours):
 
Tides and Currents Weather Stations Pressure Air Temp Water Temp Dewpoint Dewpoint Depression Visibility Wind Speed Wind Dir Waves Ship Positions

Akebono

Last reported at 2014-Sep-30 22:17 UTC. Time now 2014-Oct-01 22:33 UTC.
Position N 35°27' E 139°39'.

Length 33 m; draft 4.4 m.

Type: Tug. MMSI: 431000233.

Date/timePositionNaut miles runAvg speedWind from/ knotsBaromVisibWave heightAir tempDewpointWater temp
2014-Sep-30 22:17N 35°27' E 139°39'1 1.6
2014-Sep-30 21:33N 35°28' E 139°40'1 1.0
2014-Sep-30 20:33N 35°28' E 139°42'0 0.4
2014-Sep-30 19:34N 35°28' E 139°42'0 0.0
2014-Sep-30 18:34N 35°28' E 139°42'2 1.5
2014-Sep-30 17:34N 35°26' E 139°41'2 1.8
2014-Sep-30 16:34N 35°26' E 139°43'1 1.2
2014-Sep-30 15:34N 35°26' E 139°42'0 0.0
2014-Sep-30 14:33N 35°26' E 139°42'0 0.0
2014-Sep-30 13:33N 35°26' E 139°42'0 0.0
2014-Sep-30 12:33N 35°26' E 139°42'2 2.5
2014-Sep-30 11:33N 35°24' E 139°41'3 2.6
2014-Sep-30 10:33N 35°26' E 139°42'0 0.0
2014-Sep-30 09:33N 35°26' E 139°42'1 1.3
2014-Sep-30 08:33N 35°27' E 139°41'1 1.3
2014-Sep-30 07:33N 35°27' E 139°39'0 0.0
2014-Sep-30 06:33N 35°27' E 139°39'0 0.1
2014-Sep-30 05:33N 35°27' E 139°39'0 0.0
2014-Sep-30 04:33N 35°27' E 139°39'0 0.0
2014-Sep-30 03:33N 35°27' E 139°39'0 0.0
2014-Sep-30 02:33N 35°27' E 139°39'0 0.0
2014-Sep-30 01:33N 35°27' E 139°39'0 0.0
2014-Sep-30 00:33N 35°27' E 139°39'0 0.0
2014-Sep-29 23:33N 35°27' E 139°39'0 0.0
2014-Sep-29 22:33N 35°27' E 139°39'0 0.0
2014-Sep-29 21:33N 35°27' E 139°39'0 0.0
2014-Sep-29 20:33N 35°27' E 139°39'  
2014-Sep-27 09:16N 35°27' E 139°39'0 0.0
2014-Sep-27 08:33N 35°27' E 139°39'0 0.3
2014-Sep-27 07:33N 35°27' E 139°40'1 1.1
2014-Sep-27 06:33N 35°27' E 139°41'1 0.7
2014-Sep-27 05:34N 35°28' E 139°41'0 0.0
2014-Sep-27 04:33N 35°28' E 139°41'0 0.0
2014-Sep-27 03:33N 35°28' E 139°41'0 0.0
2014-Sep-27 02:33N 35°28' E 139°41'2 2.2
2014-Sep-27 01:33N 35°25' E 139°41'2 1.9
2014-Sep-27 00:33N 35°27' E 139°39'0 0.2
2014-Sep-26 23:33N 35°27' E 139°40'6 5.9
2014-Sep-26 22:33N 35°30' E 139°46'4 4.5
2014-Sep-26 21:34N 35°27' E 139°42'2 0.1
2014-Sep-25 22:33N 35°28' E 139°41'3 3.3
2014-Sep-25 21:34N 35°30' E 139°44'2 2.2
2014-Sep-25 20:34N 35°28' E 139°44'0 0.0
2014-Sep-25 19:34N 35°28' E 139°44'1 0.6
2014-Sep-25 18:33N 35°28' E 139°43'2 1.9
2014-Sep-25 17:33N 35°27' E 139°41'0 0.4
2014-Sep-25 16:33N 35°28' E 139°41'3 3.3
2014-Sep-25 15:33N 35°24' E 139°41'1 0.8
2014-Sep-25 14:33N 35°24' E 139°41'4 3.7
2014-Sep-25 13:33N 35°27' E 139°39'0 0.0
2014-Sep-25 12:33N 35°27' E 139°39'0 0.0
2014-Sep-25 11:34N 35°27' E 139°39'3 2.7
2014-Sep-25 10:33N 35°27' E 139°43'2 2.0
2014-Sep-25 09:34N 35°28' E 139°40'0 0.0
2014-Sep-25 08:34N 35°28' E 139°40'0 0.0
2014-Sep-25 07:33N 35°28' E 139°40'1 1.0
2014-Sep-25 06:33N 35°27' E 139°39'0 0.0
2014-Sep-25 05:33N 35°27' E 139°39'0 0.0
2014-Sep-25 04:33N 35°27' E 139°39'0 0.0
2014-Sep-25 03:33N 35°27' E 139°39'0 0.0
2014-Sep-25 02:34N 35°27' E 139°39'0 0.0
2014-Sep-25 01:34N 35°27' E 139°39'0 0.0
2014-Sep-25 00:34N 35°27' E 139°39'0 0.0
2014-Sep-24 23:34N 35°27' E 139°39'1 1.2
2014-Sep-24 22:33N 35°27' E 139°41'2 2.1
2014-Sep-24 21:34N 35°26' E 139°43'3 2.9
2014-Sep-24 20:33N 35°27' E 139°39'0 0.0
2014-Sep-24 10:16N 35°27' E 139°39'0 0.0
2014-Sep-22 10:34N 35°27' E 139°40'1 0.5
2014-Sep-22 09:34N 35°27' E 139°40'3 2.6
2014-Sep-22 08:33N 35°25' E 139°43'3 3.4
2014-Sep-22 07:34N 35°27' E 139°39'0 0.0
2014-Sep-22 06:33N 35°27' E 139°39'0 0.1
2014-Sep-22 05:34N 35°27' E 139°39'0 0.0
2014-Sep-22 04:34N 35°27' E 139°39'0 0.0
2014-Sep-22 03:34N 35°27' E 139°39'4 4.1
2014-Sep-22 02:34N 35°30' E 139°43'3 2.6
2014-Sep-22 01:33N 35°31' E 139°46'1 0.5
2014-Sep-22 00:31N 35°30' E 139°46'1 1.3
2014-Sep-21 23:33N 35°30' E 139°45'5 5.4
2014-Sep-21 22:33N 35°27' E 139°39'1 0.1
2014-Sep-20 22:33N 35°28' E 139°41'  

Dump ship's entire track history